Time;durP1;ratioP1;P1;durP2;ratioP2;P2;SDS_P1;SDS_P2;PMS_P1;PMS_P2;Temp;Humidity;BMP_temperature;BMP_pressure;BME280_temperature;BME280_humidity;BME280_pressure;Samples;Min_cycle;Max_cycle;Signal;HPM_P1;HPM_P2
2022/10/20 00:01:45;;;;;;;6.45;5.13;;;;;;;20.99;41.82;95263.16;5003087;28;20504;-60
2022/10/20 00:04:11;;;;;;;6.85;5.45;;;;;;;21.48;41.90;95336.00;5006332;28;20072;-61
2022/10/20 00:06:36;;;;;;;6.45;5.55;;;;;;;21.98;42.14;95419.91;5005283;28;20136;-59
2022/10/20 00:09:02;;;;;;;8.18;6.13;;;;;;;21.30;41.69;95308.47;5007748;28;20033;-59
2022/10/20 00:11:28;;;;;;;6.90;5.70;;;;;;;21.98;41.90;95406.31;5014437;28;20069;-64
2022/10/20 00:13:54;;;;;;;6.78;5.55;;;;;;;21.77;41.90;95370.91;5006798;28;20072;-64
2022/10/20 00:16:20;;;;;;;6.05;5.03;;;;;;;21.73;41.85;95364.97;5013140;28;20089;-64
2022/10/20 00:18:46;;;;;;;6.28;5.50;;;;;;;21.87;42.22;95380.31;5021047;28;20029;-63
2022/10/20 00:21:17;;;;;;;6.40;5.60;;;;;;;21.86;42.14;95395.16;5013447;28;20681;-60
2022/10/20 00:23:42;;;;;;;7.43;5.72;;;;;;;21.34;41.95;95317.13;5005725;28;20309;-65
2022/10/20 00:26:11;;;;;;;5.53;4.90;;;;;;;21.31;41.79;95307.25;5012645;28;20195;-64
2022/10/20 00:28:36;;;;;;;7.40;5.85;;;;;;;21.96;41.87;95406.06;5002348;28;20038;-65
2022/10/20 00:31:03;;;;;;;6.35;5.35;;;;;;;21.63;41.91;95361.00;5003333;28;20539;-63
2022/10/20 00:33:28;;;;;;;6.70;5.78;;;;;;;21.29;41.90;95305.00;5002199;28;20057;-65
2022/10/20 00:35:54;;;;;;;6.57;5.50;;;;;;;21.92;42.04;95387.78;5015074;28;20373;-65
2022/10/20 00:38:19;;;;;;;6.63;5.30;;;;;;;21.96;42.17;95389.75;5015139;28;20030;-63
2022/10/20 00:40:44;;;;;;;6.50;5.50;;;;;;;21.45;42.10;95328.78;5008553;28;20030;-65
2022/10/20 00:43:13;;;;;;;6.35;5.35;;;;;;;21.72;41.94;95358.03;5003213;28;20752;-64
2022/10/20 00:45:39;;;;;;;7.15;5.18;;;;;;;21.31;42.10;95291.69;5015973;28;20065;-62
2022/10/20 00:48:08;;;;;;;6.07;5.30;;;;;;;21.95;42.18;95377.38;5022254;28;20119;-65
2022/10/20 00:50:39;;;;;;;6.70;5.03;;;;;;;21.90;42.09;95373.91;5012423;28;20625;-65
2022/10/20 00:53:04;;;;;;;6.53;5.68;;;;;;;21.36;42.06;95293.69;5006406;28;20034;-65
2022/10/20 00:55:31;;;;;;;6.53;5.40;;;;;;;21.84;42.19;95365.00;5005719;28;20402;-66
2022/10/20 00:57:57;;;;;;;6.68;5.82;;;;;;;21.21;42.29;95271.41;5013876;28;20167;-66
2022/10/20 01:00:23;;;;;;;6.22;5.43;;;;;;;21.92;42.09;95376.91;5015752;28;20487;-65
2022/10/20 01:02:49;;;;;;;6.50;5.50;;;;;;;21.92;42.19;95383.81;5006724;28;20046;-64
2022/10/20 01:05:15;;;;;;;6.63;5.40;;;;;;;21.12;42.03;95266.19;5019221;28;20042;-64
2022/10/20 01:07:40;;;;;;;6.60;5.38;;;;;;;21.90;42.03;95390.22;5009769;28;20068;-65
2022/10/20 01:10:06;;;;;;;6.82;5.88;;;;;;;21.49;42.24;95332.03;5011984;28;20025;-64
2022/10/20 01:12:41;;;;;;;6.75;5.43;;;;;;;21.12;42.09;95279.00;5001288;28;20045;-66
2022/10/20 01:15:22;;;;;;;6.13;5.30;;;;;;;21.91;42.24;95383.56;5012134;28;20048;-65
2022/10/20 01:18:05;;;;;;;6.13;5.38;;;;;;;21.31;42.24;95302.53;5008894;28;20045;-65
2022/10/20 01:20:41;;;;;;;7.28;5.78;;;;;;;21.90;42.40;95401.09;5011628;28;20045;-62
2022/10/20 01:23:28;;;;;;;6.70;5.47;;;;;;;21.90;42.15;95384.78;5007552;28;20046;-64
2022/10/20 01:26:31;;;;;;;6.43;5.40;;;;;;;21.88;42.41;95387.25;5009301;28;20147;-66
2022/10/20 01:28:57;;;;;;;6.38;5.13;;;;;;;21.88;42.25;95392.69;5004097;28;20084;-63
2022/10/20 01:31:46;;;;;;;6.30;5.30;;;;;;;21.88;42.24;95384.53;5009739;28;20519;-62
2022/10/20 01:34:35;;;;;;;6.63;5.40;;;;;;;21.88;42.43;95384.53;5005808;28;20033;-66
2022/10/20 01:37:06;;;;;;;5.75;5.07;;;;;;;20.96;42.27;95250.56;5019680;28;20037;-66
2022/10/20 01:39:51;;;;;;;6.53;5.50;;;;;;;21.89;42.37;95383.31;5021584;28;20037;-64
2022/10/20 01:42:20;;;;;;;7.75;5.80;;;;;;;20.96;42.40;95253.28;5015509;28;20045;-66
2022/10/20 01:44:45;;;;;;;5.90;5.22;;;;;;;21.54;42.12;95348.34;5022326;28;20478;-63
2022/10/20 01:47:11;;;;;;;6.22;5.40;;;;;;;21.89;42.62;95386.03;5005055;28;20053;-66
2022/10/20 01:49:36;;;;;;;6.30;5.50;;;;;;;21.42;42.28;95318.91;5020857;28;20492;-64
2022/10/20 01:52:02;;;;;;;7.00;5.60;;;;;;;21.25;42.42;95304.50;5005557;28;20539;-61
2022/10/20 01:54:28;;;;;;;6.13;5.50;;;;;;;21.52;42.50;95344.63;5017028;28;20208;-66
2022/10/20 01:56:56;;;;;;;6.57;5.70;;;;;;;21.86;42.28;95395.16;5014748;28;20049;-64
2022/10/20 01:59:41;;;;;;;6.50;5.32;;;;;;;21.88;42.54;95395.41;5006628;28;20537;-66
2022/10/20 02:02:26;;;;;;;6.63;5.50;;;;;;;21.87;42.54;95396.63;5015489;28;20140;-64
2022/10/20 02:05:22;;;;;;;6.72;5.65;;;;;;;21.61;42.54;95368.88;5017054;28;20041;-62
2022/10/20 02:07:48;;;;;;;6.00;5.40;;;;;;;21.70;42.49;95383.00;5015238;28;20046;-64
2022/10/20 02:10:20;;;;;;;6.28;5.32;;;;;;;21.13;42.35;95296.78;5006892;28;20095;-66
2022/10/20 02:12:48;;;;;;;7.18;5.68;;;;;;;21.51;42.39;95359.47;5007618;28;20026;-63
2022/10/20 02:15:16;;;;;;;6.97;5.75;;;;;;;21.83;42.67;95402.31;5019735;28;20580;-64
2022/10/20 02:17:41;;;;;;;6.13;5.53;;;;;;;21.73;42.47;95397.59;5011598;28;20041;-64
2022/10/20 02:20:07;;;;;;;6.25;5.65;;;;;;;21.26;42.40;95330.44;5005307;28;20108;-65
2022/10/20 02:22:32;;;;;;;6.55;5.15;;;;;;;21.64;42.54;95392.34;5011946;28;20041;-63
2022/10/20 02:24:58;;;;;;;6.60;5.45;;;;;;;21.61;42.69;95379.75;5025148;28;20014;-59
2022/10/20 02:27:34;;;;;;;7.05;5.63;;;;;;;21.64;42.45;95405.94;5006269;28;20419;-65
2022/10/20 02:30:05;;;;;;;5.85;5.15;;;;;;;21.65;42.53;95391.13;5023185;28;20086;-64
2022/10/20 02:32:31;;;;;;;7.47;5.28;;;;;;;21.70;42.56;95423.03;5003481;28;20038;-64
2022/10/20 02:34:56;;;;;;;5.88;5.28;;;;;;;21.60;42.70;95405.47;5012668;28;20048;-65
2022/10/20 02:37:22;;;;;;;7.90;6.05;;;;;;;21.35;42.79;95349.22;5019682;28;20037;-65
2022/10/20 02:39:47;;;;;;;6.35;5.30;;;;;;;21.76;42.60;95415.63;5009041;28;20086;-67
2022/10/20 02:42:15;;;;;;;6.15;5.40;;;;;;;21.77;42.68;95414.41;5011712;28;20508;-68
2022/10/20 02:44:41;;;;;;;6.43;5.75;;;;;;;20.80;42.46;95274.19;5004576;28;20513;-67
2022/10/20 02:47:06;;;;;;;6.68;5.53;;;;;;;21.60;42.68;95402.75;5010252;28;20037;-67
2022/10/20 02:49:32;;;;;;;6.53;5.40;;;;;;;21.06;42.73;95325.16;5016134;28;20085;-64
2022/10/20 02:51:57;;;;;;;6.22;5.25;;;;;;;21.63;42.77;95418.06;5003636;28;20037;-61
2022/10/20 02:54:23;;;;;;;7.05;5.50;;;;;;;21.39;42.53;95379.63;5006680;28;20057;-63
2022/10/20 02:56:48;;;;;;;5.85;5.20;;;;;;;20.78;42.62;95288.22;5016206;28;20042;-61
2022/10/20 02:59:15;;;;;;;6.75;5.60;;;;;;;21.70;42.86;95433.91;5010358;28;20038;-65
2022/10/20 03:01:41;;;;;;;6.15;5.30;;;;;;;21.26;42.71;95375.88;5004771;28;20855;-67
2022/10/20 03:04:07;;;;;;;6.68;5.50;;;;;;;21.75;42.83;95433.16;5004457;28;20018;-65
2022/10/20 03:06:32;;;;;;;5.82;5.20;;;;;;;20.83;42.70;95295.66;5010846;28;20046;-61
2022/10/20 03:08:58;;;;;;;5.75;5.15;;;;;;;21.43;42.55;95388.28;5017686;28;20040;-61
2022/10/20 03:11:23;;;;;;;6.95;5.28;;;;;;;21.34;42.53;95364.03;5005263;28;20432;-62
2022/10/20 03:13:49;;;;;;;6.22;5.15;;;;;;;21.36;42.30;95348.03;5013325;28;20067;-66
2022/10/20 03:16:14;;;;;;;5.45;4.93;;;;;;;21.82;43.21;95417.13;5002890;28;20433;-63
2022/10/20 03:18:40;;;;;;;5.50;4.53;;;;;;;21.73;42.55;95397.59;5003508;28;20053;-65
2022/10/20 03:21:05;;;;;;;6.07;4.93;;;;;;;21.62;42.40;95352.09;5011936;28;20057;-66
2022/10/20 03:23:31;;;;;;;5.85;5.25;;;;;;;22.33;42.28;95454.91;5011641;28;20405;-60
2022/10/20 03:26:03;;;;;;;6.13;5.03;;;;;;;22.45;42.08;95446.25;5015150;28;20173;-68
2022/10/20 03:28:29;;;;;;;5.65;4.65;;;;;;;21.96;42.21;95380.88;5007315;28;20025;-69
2022/10/20 03:30:54;;;;;;;5.72;5.07;;;;;;;21.93;42.19;95374.41;5013593;28;20107;-66
2022/10/20 03:33:20;;;;;;;6.70;4.63;;;;;;;21.93;41.77;95365.53;5016248;28;20033;-65
2022/10/20 03:35:45;;;;;;;5.68;4.78;;;;;;;21.93;42.06;95349.94;5022288;28;20049;-64
2022/10/20 03:38:11;;;;;;;6.40;5.00;;;;;;;22.20;42.20;95387.34;5018440;28;20527;-65
2022/10/20 03:40:36;;;;;;;5.68;4.75;;;;;;;21.64;41.83;95319.75;5017506;28;20638;-69
2022/10/20 03:43:02;;;;;;;5.47;4.88;;;;;;;22.97;41.26;95448.06;5015500;28;20052;-65
2022/10/20 03:45:27;;;;;;;5.93;4.78;;;;;;;22.39;41.17;95344.09;5012210;28;20046;-72
2022/10/20 03:47:53;;;;;;;6.30;4.60;;;;;;;22.94;41.31;95428.03;5002539;28;20049;-72
2022/10/20 03:50:18;;;;;;;5.82;4.85;;;;;;;23.11;41.24;95471.59;5005654;28;20045;-71
2022/10/20 03:52:46;;;;;;;6.68;5.20;;;;;;;22.42;41.10;95354.75;5021409;28;20042;-73
2022/10/20 03:55:11;;;;;;;8.85;4.72;;;;;;;22.44;40.66;95412.13;5017753;28;20195;-71
2022/10/20 03:57:37;;;;;;;5.30;4.80;;;;;;;23.32;40.95;95473.56;5005717;28;20041;-69
2022/10/20 04:00:03;;;;;;;5.68;4.70;;;;;;;23.28;40.81;95466.88;5022812;28;20273;-67
2022/10/20 04:02:41;;;;;;;5.30;4.57;;;;;;;23.25;41.11;95474.03;5072757;22;20045;-63
2022/10/20 04:05:07;;;;;;;5.07;4.57;;;;;;;23.21;40.90;95462.66;5053322;28;20039;-65
2022/10/20 04:07:32;;;;;;;5.85;5.15;;;;;;;22.96;40.98;95420.09;5032660;28;20521;-63
2022/10/20 04:10:01;;;;;;;6.65;4.75;;;;;;;23.28;40.67;95448.53;5048834;28;20083;-59
2022/10/20 04:12:26;;;;;;;5.95;5.03;;;;;;;23.62;40.38;95469.03;5026912;28;20044;-61
2022/10/20 04:14:52;;;;;;;8.35;4.75;;;;;;;23.37;39.57;95380.13;5041451;28;20041;-62
2022/10/20 04:17:17;;;;;;;9.57;4.30;;;;;;;23.36;40.58;95378.63;5038558;28;21171;-59
2022/10/20 04:19:43;;;;;;;5.95;4.55;;;;;;;23.91;40.40;95464.50;5024917;28;20052;-63
2022/10/20 04:22:08;;;;;;;5.70;4.55;;;;;;;23.30;40.03;95380.63;5041785;28;20032;-59
2022/10/20 04:24:34;;;;;;;6.95;4.97;;;;;;;23.77;39.91;95442.25;5051428;28;20552;-63
2022/10/20 04:26:59;;;;;;;8.13;4.65;;;;;;;23.29;39.81;95371.00;5045968;28;20037;-65
2022/10/20 04:29:24;;;;;;;6.63;4.70;;;;;;;23.44;39.71;95371.44;5041844;28;21099;-67
2022/10/20 04:31:50;;;;;;;5.68;4.50;;;;;;;23.38;39.85;95365.28;5040933;28;20059;-62
2022/10/20 04:34:15;;;;;;;7.90;4.63;;;;;;;23.49;40.03;95406.13;5038780;28;20560;-65
2022/10/20 04:36:41;;;;;;;5.40;4.40;;;;;;;23.27;39.83;95376.19;5015810;28;20044;-66
2022/10/20 04:39:07;;;;;;;7.03;4.70;;;;;;;23.83;40.08;95462.06;5032005;28;20111;-64
2022/10/20 04:41:32;;;;;;;5.60;4.18;;;;;;;23.81;39.67;95453.63;5030288;28;20041;-62
2022/10/20 04:43:58;;;;;;;4.90;4.25;;;;;;;23.66;39.89;95399.41;5036443;28;20054;-66
2022/10/20 04:46:25;;;;;;;5.85;5.00;;;;;;;24.17;39.36;95464.91;5040032;28;20113;-67
2022/10/20 04:48:51;;;;;;;5.25;4.40;;;;;;;24.03;39.56;95455.03;5038500;28;20066;-69
2022/10/20 04:51:16;;;;;;;5.90;4.90;;;;;;;24.20;39.32;95474.03;5037742;28;20673;-69
2022/10/20 04:53:42;;;;;;;5.07;4.30;;;;;;;23.52;39.08;95367.69;5037981;28;20453;-65
2022/10/20 04:56:10;;;;;;;5.07;4.40;;;;;;;24.22;39.30;95477.78;5037102;28;20041;-69
2022/10/20 04:58:35;;;;;;;5.22;4.38;;;;;;;23.67;39.40;95405.59;5036827;28;20048;-66
2022/10/20 05:01:06;;;;;;;6.78;4.25;;;;;;;24.31;39.17;95484.94;5040236;28;20072;-59
2022/10/20 05:03:32;;;;;;;5.85;4.32;;;;;;;23.70;39.28;95396.41;5036165;28;20083;-70
2022/10/20 05:06:33;;;;;;;5.97;4.53;;;;;;;24.24;39.50;95491.66;5025481;28;20037;-61
2022/10/20 05:09:00;;;;;;;6.57;4.70;;;;;;;23.36;39.65;95392.25;5008006;28;20037;-63
2022/10/20 05:11:26;;;;;;;6.03;4.70;;;;;;;23.12;39.61;95329.44;5017319;28;20648;-69
2022/10/20 05:13:52;;;;;;;7.43;4.15;;;;;;;24.20;39.24;95479.50;5042406;28;20147;-60
2022/10/20 05:16:17;;;;;;;5.60;4.43;;;;;;;23.49;39.42;95393.22;5040129;28;20158;-62
2022/10/20 05:18:43;;;;;;;7.70;4.47;;;;;;;24.43;38.93;95508.97;5042139;28;20522;-66
2022/10/20 05:21:16;;;;;;;6.00;4.50;;;;;;;24.53;39.12;95512.91;5019747;28;20913;-62
2022/10/20 05:23:42;;;;;;;6.35;4.90;;;;;;;24.34;39.43;95473.03;5040299;28;20040;-59
2022/10/20 05:26:17;;;;;;;7.47;4.78;;;;;;;24.69;40.15;95512.03;5038073;28;20120;-63
2022/10/20 05:28:46;;;;;;;6.43;4.68;;;;;;;24.65;43.00;95519.75;5041286;28;20037;-64
2022/10/20 05:31:12;;;;;;;4.57;4.10;;;;;;;24.71;41.52;95523.19;5040796;28;20044;-62
2022/10/20 05:33:38;;;;;;;4.90;4.38;;;;;;;24.42;42.37;95485.63;5040950;28;20120;-62
2022/10/20 05:36:08;;;;;;;6.05;4.57;;;;;;;23.37;41.96;95382.84;5039508;28;20159;-65
2022/10/20 05:38:35;;;;;;;;;;;;;;;24.60;43.23;95539.66;5036038;28;20077;-65
2022/10/20 05:41:15;;;;;;;4.93;4.20;;;;;;;24.70;41.90;95527.19;5048866;28;19932;-65
2022/10/20 05:43:40;;;;;;;5.85;4.05;;;;;;;24.13;42.77;95508.06;5037146;28;20045;-63
2022/10/20 05:46:06;;;;;;;6.30;4.65;;;;;;;24.59;40.95;95532.72;5026199;28;20030;-62
2022/10/20 05:48:32;;;;;;;5.85;4.10;;;;;;;24.68;40.25;95540.59;5031362;28;20052;-64
2022/10/20 05:51:08;;;;;;;5.47;4.03;;;;;;;24.60;40.48;95518.56;5039747;28;20033;-63
2022/10/20 05:53:34;;;;;;;5.22;4.05;;;;;;;24.76;40.44;95568.88;5039348;28;20033;-63
2022/10/20 05:56:06;;;;;;;5.78;4.10;;;;;;;24.98;39.87;95569.50;5033321;28;20098;-65
2022/10/20 05:58:32;;;;;;;6.28;4.60;;;;;;;24.13;40.23;95475.31;5040488;28;20045;-63
2022/10/20 06:01:15;;;;;;;6.95;4.50;;;;;;;24.26;39.71;95489.16;5037190;28;20032;-63
2022/10/20 06:03:41;;;;;;;5.80;4.15;;;;;;;24.10;39.58;95468.16;5038950;28;20044;-61
2022/10/20 06:06:06;;;;;;;6.18;4.30;;;;;;;24.90;39.76;95580.22;5017130;28;20045;-63
2022/10/20 06:08:32;;;;;;;5.07;4.38;;;;;;;24.61;39.74;95532.94;5024339;28;20135;-61
2022/10/20 06:11:06;;;;;;;5.20;4.22;;;;;;;25.01;39.27;95596.56;5022986;28;20080;-60
2022/10/20 06:13:31;;;;;;;5.53;4.30;;;;;;;24.73;39.52;95569.88;5023541;28;20133;-60
2022/10/20 06:16:19;;;;;;;5.30;4.50;;;;;;;24.28;39.64;95529.63;5032911;28;20029;-61
2022/10/20 06:18:44;;;;;;;4.88;4.07;;;;;;;23.87;39.79;95485.84;5022074;28;20431;-62
2022/10/20 06:21:12;;;;;;;4.75;4.15;;;;;;;24.54;39.77;95612.66;5042391;28;20045;-61
2022/10/20 06:23:37;;;;;;;5.63;4.28;;;;;;;24.39;39.95;95612.22;5052569;28;20049;-61
2022/10/20 06:26:05;;;;;;;5.28;4.60;;;;;;;23.91;39.93;95531.94;5032109;28;20083;-61
2022/10/20 06:28:31;;;;;;;5.43;4.10;;;;;;;24.34;40.39;95618.44;5037205;28;20065;-64
2022/10/20 06:30:57;;;;;;;5.93;4.50;;;;;;;24.44;40.14;95614.22;5043407;28;20037;-62
2022/10/20 06:33:23;;;;;;;4.85;4.00;;;;;;;24.61;39.49;95625.81;5037461;28;20147;-62
2022/10/20 06:35:48;;;;;;;4.75;4.25;;;;;;;23.97;39.58;95544.31;5044588;28;20441;-64
2022/10/20 06:38:14;;;;;;;5.07;4.20;;;;;;;23.65;39.39;95489.88;5040402;28;20036;-64
2022/10/20 06:40:39;;;;;;;4.55;4.15;;;;;;;24.40;40.08;95624.63;5058045;28;20047;-62
2022/10/20 06:43:05;;;;;;;4.85;3.95;;;;;;;24.11;39.56;95578.03;5053558;28;20051;-60
2022/10/20 06:45:31;;;;;;;4.32;3.88;;;;;;;24.31;40.30;95638.53;5060418;28;20064;-64
2022/10/20 06:47:56;;;;;;;4.85;4.22;;;;;;;23.99;39.97;95617.50;5058150;28;20162;-63
2022/10/20 06:50:22;;;;;;;4.57;4.13;;;;;;;23.86;40.28;95597.44;5059708;28;20220;-63
2022/10/20 06:52:47;;;;;;;4.53;4.00;;;;;;;23.28;40.53;95513.19;5053280;28;20048;-63
2022/10/20 06:55:13;;;;;;;5.22;4.15;;;;;;;24.00;40.29;95619.72;5062564;28;20020;-62
2022/10/20 06:57:38;;;;;;;5.53;4.40;;;;;;;23.65;40.75;95572.41;5060958;28;20530;-60
2022/10/20 07:00:05;;;;;;;4.72;4.03;;;;;;;23.53;40.38;95556.53;5056035;28;20028;-60
2022/10/20 07:02:30;;;;;;;5.47;4.20;;;;;;;23.38;40.74;95553.34;5055755;28;20041;-61
2022/10/20 07:04:56;;;;;;;5.35;4.15;;;;;;;23.98;40.36;95644.03;5051998;28;20415;-62
2022/10/20 07:07:21;;;;;;;5.57;4.55;;;;;;;23.19;40.79;95541.44;5074006;28;20020;-61
2022/10/20 07:09:46;;;;;;;5.15;4.13;;;;;;;23.88;40.85;95656.47;5058295;28;20589;-57
2022/10/20 07:12:12;;;;;;;5.70;4.20;;;;;;;23.86;40.96;95652.00;5059203;28;20082;-59
2022/10/20 07:14:38;;;;;;;5.10;4.13;;;;;;;23.71;40.71;95629.69;5046822;28;20033;-59
2022/10/20 07:17:03;;;;;;;4.88;4.15;;;;;;;22.87;40.63;95503.25;5060366;28;20148;-62
2022/10/20 07:19:29;;;;;;;5.70;4.22;;;;;;;22.86;40.62;95507.22;5056439;28;20028;-61
2022/10/20 07:21:55;;;;;;;5.35;4.22;;;;;;;23.40;41.00;95583.56;5053489;28;20471;-62
2022/10/20 07:24:20;;;;;;;5.32;4.05;;;;;;;23.16;40.92;95558.03;5058860;28;20036;-63
2022/10/20 07:26:46;;;;;;;5.10;3.70;;;;;;;23.81;40.81;95647.28;5058293;28;20060;-63
2022/10/20 07:29:12;;;;;;;4.75;3.50;;;;;;;23.50;41.19;95637.34;5056549;28;20078;-61
2022/10/20 07:31:45;;;;;;;4.57;3.70;;;;;;;23.71;40.85;95667.88;5050014;28;20052;-62
2022/10/20 07:34:11;;;;;;;4.90;4.22;;;;;;;23.63;41.29;95639.56;5073856;28;20554;-63
2022/10/20 07:36:37;;;;;;;5.07;4.03;;;;;;;22.97;41.10;95560.50;5061482;28;20075;-62
2022/10/20 07:39:03;;;;;;;6.55;4.68;;;;;;;23.64;40.86;95649.25;5057979;28;21039;-61
2022/10/20 07:41:29;;;;;;;4.82;4.20;;;;;;;23.67;41.16;95651.75;5057022;28;20106;-65
2022/10/20 07:43:54;;;;;;;4.65;4.15;;;;;;;23.26;41.04;95590.00;5051668;28;20068;-63
2022/10/20 07:46:20;;;;;;;5.13;3.90;;;;;;;23.20;40.93;95586.53;5041315;28;20505;-64
2022/10/20 07:48:45;;;;;;;4.65;4.00;;;;;;;23.02;41.09;95543.41;5074076;28;20017;-65
2022/10/20 07:51:14;;;;;;;4.40;4.00;;;;;;;23.67;41.23;95651.75;5031015;28;20041;-63
2022/10/20 07:53:39;;;;;;;4.85;3.90;;;;;;;23.11;41.29;95578.59;5052155;28;20097;-63
2022/10/20 07:56:05;;;;;;;4.93;4.07;;;;;;;23.58;41.13;95653.94;5042312;28;20038;-65
2022/10/20 07:58:30;;;;;;;5.05;4.05;;;;;;;23.44;41.36;95633.84;5059783;28;21287;-62
2022/10/20 08:00:56;;;;;;;5.85;4.10;;;;;;;22.90;41.10;95544.59;5035973;28;20472;-61
2022/10/20 08:03:21;;;;;;;4.18;3.78;;;;;;;23.64;41.22;95643.81;5038451;28;20476;-62
2022/10/20 08:05:47;;;;;;;5.60;4.25;;;;;;;23.00;40.85;95551.34;5042772;28;20403;-61
2022/10/20 08:08:12;;;;;;;5.63;4.22;;;;;;;23.54;41.20;95626.16;5059701;28;20450;-63
2022/10/20 08:10:38;;;;;;;4.28;3.83;;;;;;;23.58;40.98;95638.31;5061329;28;20060;-61
2022/10/20 08:13:03;;;;;;;5.43;4.10;;;;;;;23.47;41.24;95634.84;5055688;28;20519;-63
2022/10/20 08:15:29;;;;;;;5.20;4.10;;;;;;;23.29;40.92;95599.91;5057082;28;20037;-61
2022/10/20 08:17:54;;;;;;;5.32;4.32;;;;;;;22.97;40.75;95551.56;5040227;28;20029;-60
2022/10/20 08:20:20;;;;;;;5.18;4.15;;;;;;;23.14;41.09;95583.03;5056080;28;20039;-64
2022/10/20 08:22:46;;;;;;;4.38;3.97;;;;;;;23.34;41.30;95618.22;5056965;28;20041;-65
2022/10/20 08:25:14;;;;;;;5.30;4.28;;;;;;;23.62;40.88;95643.53;5061079;28;20058;-61
2022/10/20 08:27:40;;;;;;;4.65;3.90;;;;;;;22.62;40.64;95509.66;5050594;28;20365;-65
2022/10/20 08:30:06;;;;;;;4.88;4.32;;;;;;;23.11;40.54;95556.78;5040516;28;20128;-62
2022/10/20 08:32:31;;;;;;;4.80;4.25;;;;;;;23.29;40.69;95589.00;5041464;28;20037;-63
2022/10/20 08:34:57;;;;;;;5.43;3.92;;;;;;;23.63;40.92;95634.09;5041807;28;20037;-65
2022/10/20 08:37:22;;;;;;;5.43;4.00;;;;;;;23.66;40.68;95644.06;5040347;28;20561;-61
2022/10/20 08:39:48;;;;;;;5.32;4.50;;;;;;;23.73;41.02;95624.47;5041705;28;20439;-64
2022/10/20 08:42:13;;;;;;;4.55;3.72;;;;;;;23.49;41.14;95603.13;5032884;28;20427;-64
2022/10/20 08:44:39;;;;;;;6.65;4.30;;;;;;;23.51;40.33;95603.38;5032768;28;20048;-63
2022/10/20 08:47:21;;;;;;;7.53;4.55;;;;;;;23.57;40.77;95609.59;5005662;28;20504;-62
2022/10/20 08:49:46;;;;;;;7.50;4.05;;;;;;;23.53;40.83;95613.81;5024822;28;20131;-65
2022/10/20 08:52:13;;;;;;;7.47;4.47;;;;;;;22.88;41.19;95522.56;5041018;28;20372;-64
2022/10/20 08:54:39;;;;;;;6.15;4.45;;;;;;;23.50;40.96;95614.78;5041413;28;20116;-63
2022/10/20 08:57:17;;;;;;;5.35;4.10;;;;;;;23.58;41.15;95626.69;5039537;28;20041;-63
2022/10/20 08:59:43;;;;;;;5.88;4.35;;;;;;;23.15;41.05;95551.84;5024442;28;20029;-63
2022/10/20 09:02:15;;;;;;;6.10;4.78;;;;;;;23.46;41.26;95619.72;5040505;28;20033;-63
2022/10/20 09:04:54;;;;;;;5.78;4.35;;;;;;;23.45;40.98;95624.44;5040638;28;20040;-63
2022/10/20 09:07:31;;;;;;;5.35;4.10;;;;;;;23.50;41.25;95631.16;5020374;28;20039;-61
2022/10/20 09:10:06;;;;;;;5.03;4.32;;;;;;;23.42;40.92;95613.78;5039335;28;20722;-62
2022/10/20 09:12:32;;;;;;;4.97;4.18;;;;;;;23.48;41.13;95622.69;5035325;28;20060;-59
2022/10/20 09:14:57;;;;;;;5.75;4.60;;;;;;;23.41;40.99;95628.66;5022129;28;20114;-63
2022/10/20 09:17:22;;;;;;;6.20;4.63;;;;;;;23.54;40.81;95634.34;5038572;28;20048;-62
2022/10/20 09:19:56;;;;;;;5.43;4.25;;;;;;;23.37;41.39;95622.69;5040547;28;20033;-62
2022/10/20 09:22:21;;;;;;;6.45;4.20;;;;;;;23.26;41.44;95600.13;4995972;28;20025;-61
2022/10/20 09:24:48;;;;;;;5.05;4.13;;;;;;;23.53;40.66;95635.59;5021325;28;20788;-62
2022/10/20 09:27:19;;;;;;;6.50;4.50;;;;;;;23.38;40.94;95632.38;5022689;28;20029;-64
2022/10/20 09:29:45;;;;;;;5.18;4.40;;;;;;;23.31;41.30;95629.38;5040920;28;20049;-63
2022/10/20 09:32:17;;;;;;;5.60;4.35;;;;;;;23.31;41.60;95624.66;5014921;28;20061;-63
2022/10/20 09:34:43;;;;;;;5.45;4.50;;;;;;;23.30;41.66;95634.06;5036022;28;20111;-63
2022/10/20 09:37:08;;;;;;;6.65;4.45;;;;;;;23.32;41.17;95637.06;5015774;28;20025;-58
2022/10/20 09:39:46;;;;;;;5.45;4.43;;;;;;;23.26;41.38;95630.88;5031912;28;20317;-62
2022/10/20 09:42:13;;;;;;;5.70;4.38;;;;;;;23.32;41.03;95620.72;5038575;28;20094;-60
2022/10/20 09:44:57;;;;;;;4.88;4.00;;;;;;;23.37;40.98;95628.16;5014258;28;20053;-57
2022/10/20 09:47:23;;;;;;;4.40;4.00;;;;;;;23.29;41.66;95626.41;5022700;28;20258;-58
2022/10/20 09:49:53;;;;;;;5.43;4.25;;;;;;;23.31;41.08;95624.66;5040289;28;20029;-61
2022/10/20 09:52:29;;;;;;;6.13;4.22;;;;;;;23.27;41.56;95612.53;5040260;28;20033;-61
2022/10/20 09:54:58;;;;;;;6.63;4.60;;;;;;;23.17;41.46;95603.84;5027187;28;20122;-57
2022/10/20 09:57:24;;;;;;;5.40;4.00;;;;;;;23.27;41.46;95624.16;5025992;28;20775;-63
2022/10/20 09:59:51;;;;;;;5.20;4.30;;;;;;;23.30;41.38;95617.72;5044960;28;20044;-63
2022/10/20 10:02:20;;;;;;;4.97;4.40;;;;;;;23.28;41.21;95614.75;5026076;28;20444;-60
2022/10/20 10:04:47;;;;;;;5.55;4.40;;;;;;;23.28;41.15;95608.56;5044351;28;20591;-60
2022/10/20 10:07:21;;;;;;;5.45;4.28;;;;;;;23.37;41.27;95613.78;5025856;28;20029;-61
2022/10/20 10:09:59;;;;;;;5.47;4.50;;;;;;;23.33;41.04;95616.75;5044863;28;20104;-58
2022/10/20 10:12:26;;;;;;;5.78;4.47;;;;;;;22.55;41.23;95489.06;5049619;28;20039;-62
2022/10/20 10:14:59;;;;;;;5.90;4.15;;;;;;;23.34;41.23;95607.34;5017806;28;20123;-57
2022/10/20 10:17:45;;;;;;;5.07;4.20;;;;;;;23.30;41.00;95606.81;5023690;28;20041;-61
2022/10/20 10:20:10;;;;;;;5.03;4.18;;;;;;;23.31;41.08;95597.41;5042209;28;20084;-62
2022/10/20 10:22:35;;;;;;;5.63;4.57;;;;;;;23.31;41.33;95597.41;5043466;28;20112;-63
2022/10/20 10:25:01;;;;;;;5.15;3.97;;;;;;;23.36;41.08;95599.41;5026689;28;20029;-63
2022/10/20 10:27:34;;;;;;;5.03;4.40;;;;;;;23.33;41.08;95605.84;5008865;28;20574;-60
2022/10/20 10:30:18;;;;;;;4.93;3.92;;;;;;;23.36;41.20;95598.66;5043166;28;20049;-62
2022/10/20 10:32:43;;;;;;;4.80;4.15;;;;;;;23.44;40.80;95584.78;5041687;28;20519;-63
2022/10/20 10:35:18;;;;;;;4.80;4.15;;;;;;;23.46;40.88;95592.47;5043622;28;20068;-62
2022/10/20 10:37:44;;;;;;;5.10;4.32;;;;;;;23.45;41.34;95590.97;5027477;28;20052;-61
2022/10/20 10:40:17;;;;;;;5.35;3.88;;;;;;;23.49;41.08;95586.03;5052968;28;20036;-62
2022/10/20 10:43:23;;;;;;;5.60;4.20;;;;;;;23.58;40.97;95589.25;5045218;28;20830;-62
2022/10/20 10:45:56;;;;;;;5.28;4.18;;;;;;;23.66;40.62;95584.06;5043612;28;20055;-61
2022/10/20 10:48:55;;;;;;;5.20;4.07;;;;;;;23.69;40.69;95577.63;5030137;28;20119;-63
2022/10/20 10:51:23;;;;;;;4.20;3.63;;;;;;;23.65;40.95;95552.59;5042317;28;20542;-62
2022/10/20 10:53:55;;;;;;;5.03;3.92;;;;;;;23.84;40.27;95561.72;5044310;28;20488;-58
2022/10/20 10:56:41;;;;;;;4.43;3.78;;;;;;;23.87;40.49;95575.88;5038963;28;20093;-59
2022/10/20 10:59:10;;;;;;;4.70;3.80;;;;;;;23.92;40.66;95569.66;5051194;28;20127;-58
2022/10/20 11:01:55;;;;;;;;;;;;;;;23.93;40.14;95565.69;5017519;28;20534;-60
2022/10/20 11:04:26;;;;;;;6.72;4.38;;;;;;;24.01;40.48;95574.84;5037206;28;19916;-59
2022/10/20 11:07:10;;;;;;;5.32;4.20;;;;;;;23.92;40.28;95536.91;5053041;28;20099;-62
2022/10/20 11:10:11;;;;;;;4.78;3.70;;;;;;;24.12;40.38;95555.69;5044332;28;20048;-62
2022/10/20 11:13:18;;;;;;;5.07;4.20;;;;;;;23.99;40.21;95541.88;5053841;28;20804;-60
2022/10/20 11:16:05;;;;;;;5.18;3.92;;;;;;;24.08;40.40;95549.78;5028593;28;20246;-63
2022/10/20 11:18:51;;;;;;;4.50;3.75;;;;;;;24.13;39.93;95546.28;5056661;28;20044;-61
2022/10/20 11:21:54;;;;;;;5.10;3.92;;;;;;;24.02;40.49;95540.88;5030694;28;20037;-62
2022/10/20 11:24:35;;;;;;;3.97;3.58;;;;;;;24.15;40.29;95538.31;5058588;28;20037;-61
2022/10/20 11:27:10;;;;;;;4.38;3.90;;;;;;;24.07;39.96;95520.25;5038718;28;20502;-62
2022/10/20 11:29:40;;;;;;;5.80;4.10;;;;;;;24.20;39.84;95529.38;5026419;28;20529;-59
2022/10/20 11:32:27;;;;;;;4.68;3.70;;;;;;;24.01;39.94;95533.91;5056579;28;20456;-58
2022/10/20 11:35:06;;;;;;;4.35;3.88;;;;;;;24.20;39.81;95529.38;5039337;28;20543;-61
2022/10/20 11:37:38;;;;;;;5.60;4.10;;;;;;;24.20;40.19;95539.53;5029002;28;20132;-61
2022/10/20 11:40:09;;;;;;;4.50;3.83;;;;;;;24.19;40.33;95527.91;5016603;28;20187;-63
2022/10/20 11:43:01;;;;;;;4.35;3.75;;;;;;;24.21;40.10;95525.41;5047057;28;20744;-59
2022/10/20 11:45:44;;;;;;;4.57;3.90;;;;;;;24.27;39.89;95520.66;5030194;28;20134;-57